createdAt,value
2023-05-01T00:00:21.378Z,-0.352
2023-05-01T00:01:21.417Z,-0.3293
2023-05-01T00:02:21.531Z,-0.3367
2023-05-01T00:03:21.610Z,-0.3367
2023-05-01T00:04:21.777Z,-0.3828
2023-05-01T00:05:21.581Z,-0.4488
2023-05-01T00:06:21.651Z,-0.4658
2023-05-01T00:07:21.656Z,-0.4196
2023-05-01T00:08:21.684Z,-0.3888
2023-05-01T00:09:21.747Z,-0.3735
2023-05-01T00:10:21.790Z,-0.3656
2023-05-01T00:11:21.823Z,-0.3837
2023-05-01T00:12:21.870Z,-0.4007
2023-05-01T00:13:21.933Z,-0.399
2023-05-01T00:14:21.953Z,-0.399
2023-05-01T00:15:21.994Z,-0.4467
2023-05-01T00:16:22.065Z,-0.4774
2023-05-01T00:17:22.069Z,-0.5476
2023-05-01T00:18:22.117Z,-0.5613
2023-05-01T00:19:22.153Z,-0.5831
2023-05-01T00:20:22.192Z,-0.5831
2023-05-01T00:21:22.220Z,-0.5831
2023-05-01T00:22:22.296Z,-0.6059
2023-05-01T00:23:22.298Z,-0.5751
2023-05-01T00:24:22.349Z,-0.5444
2023-05-01T00:25:22.390Z,-0.5597
2023-05-01T00:26:22.421Z,-0.5597
2023-05-01T00:27:22.481Z,-0.6453
2023-05-01T00:28:22.540Z,-0.7647
2023-05-01T00:29:22.544Z,-0.7955
2023-05-01T00:30:22.614Z,-0.8028
2023-05-01T00:31:22.703Z,-0.755
2023-05-01T00:32:22.682Z,-0.7242
2023-05-01T00:33:22.716Z,-0.6935
2023-05-01T00:34:22.735Z,-0.7153
2023-05-01T00:35:22.793Z,-0.6829
2023-05-01T00:36:22.824Z,-0.6892
2023-05-01T00:37:22.865Z,-0.7073
2023-05-01T00:38:22.915Z,-0.7396
2023-05-01T00:39:22.955Z,-0.7396
2023-05-01T00:40:22.980Z,-0.7396
2023-05-01T00:41:23.025Z,-0.7576
2023-05-01T00:42:23.070Z,-0.7747
2023-05-01T00:43:23.110Z,-0.7822
2023-05-01T00:44:23.147Z,-0.7822
2023-05-01T00:45:23.189Z,-0.8506
2023-05-01T00:46:23.306Z,-0.8812
2023-05-01T00:47:23.270Z,-0.9118
2023-05-01T00:48:23.310Z,-0.9271
2023-05-01T00:49:23.316Z,-0.9499
2023-05-01T00:50:23.360Z,-0.9669
2023-05-01T00:51:23.398Z,-0.9652
2023-05-01T00:52:23.445Z,-0.985
2023-05-01T00:53:23.495Z,-1.016
2023-05-01T00:54:23.528Z,-1.06
2023-05-01T00:55:23.554Z,-1.045
2023-05-01T00:56:23.615Z,-1.029
2023-05-01T00:57:23.644Z,-1.014
2023-05-01T00:58:23.677Z,-0.9987
2023-05-01T00:59:23.751Z,-0.9807
2023-05-01T01:00:23.762Z,-1.072
2023-05-01T01:01:23.904Z,-1.072
2023-05-01T01:02:23.849Z,-1.087
2023-05-01T01:03:23.877Z,-1.087
2023-05-01T01:04:23.942Z,-1.087
2023-05-01T01:05:23.966Z,-1.139
2023-05-01T01:06:24.015Z,-1.139
2023-05-01T01:07:24.024Z,-1.155
2023-05-01T01:08:24.088Z,-1.17
2023-05-01T01:09:24.105Z,-1.159
2023-05-01T01:10:24.137Z,-1.129
2023-05-01T01:11:24.182Z,-1.132
2023-05-01T01:12:24.226Z,-1.124
2023-05-01T01:13:24.236Z,-1.129
2023-05-01T01:14:24.286Z,-1.113
2023-05-01T01:15:24.341Z,-1.096
2023-05-01T01:16:24.422Z,-1.112
2023-05-01T01:17:24.429Z,-1.081
2023-05-01T01:18:24.452Z,-1.081
2023-05-01T01:19:24.474Z,-1.081
2023-05-01T01:20:24.527Z,-1.138
2023-05-01T01:21:24.578Z,-1.138
2023-05-01T01:22:24.628Z,-1.138
2023-05-01T01:23:24.633Z,-1.123
2023-05-01T01:24:24.682Z,-1.153
2023-05-01T01:25:24.715Z,-1.153
2023-05-01T01:26:24.752Z,-1.153
2023-05-01T01:27:24.826Z,-1.169
2023-05-01T01:28:24.839Z,-1.219
2023-05-01T01:29:24.877Z,-1.275
2023-05-01T01:30:24.926Z,-1.26
2023-05-01T01:31:24.988Z,-1.26
2023-05-01T01:32:25.027Z,-1.297
2023-05-01T01:33:25.060Z,-1.297
2023-05-01T01:34:25.068Z,-1.297
2023-05-01T01:35:25.111Z,-1.319
2023-05-01T01:36:25.159Z,-1.35
2023-05-01T01:37:25.202Z,-1.365
2023-05-01T01:38:25.235Z,-1.35
2023-05-01T01:39:25.272Z,-1.322
2023-05-01T01:40:25.305Z,-1.379
2023-05-01T01:41:25.346Z,-1.334
2023-05-01T01:42:25.375Z,-1.304
2023-05-01T01:43:25.422Z,-1.324
2023-05-01T01:44:25.448Z,-1.262
2023-05-01T01:45:25.492Z,-1.262
2023-05-01T01:46:25.612Z,-1.279
2023-05-01T01:47:25.627Z,-1.279
2023-05-01T01:48:25.613Z,-1.317
2023-05-01T01:49:25.653Z,-1.317
2023-05-01T01:50:25.701Z,-1.317
2023-05-01T01:51:25.740Z,-1.287
2023-05-01T01:52:25.769Z,-1.315
2023-05-01T01:53:25.820Z,-1.315
2023-05-01T01:54:25.841Z,-1.33
2023-05-01T01:55:25.882Z,-1.332
2023-05-01T01:56:25.919Z,-1.332
2023-05-01T01:57:25.958Z,-1.317
2023-05-01T01:58:26.008Z,-1.302
2023-05-01T01:59:26.053Z,-1.317
2023-05-01T02:00:26.095Z,-1.317
2023-05-01T02:01:26.199Z,-1.302
2023-05-01T02:02:26.255Z,-1.302
2023-05-01T02:03:26.280Z,-1.302
2023-05-01T02:04:26.268Z,-1.317
2023-05-01T02:05:26.266Z,-1.302
2023-05-01T02:06:26.348Z,-1.31
2023-05-01T02:07:26.351Z,-1.325
2023-05-01T02:08:26.383Z,-1.325
2023-05-01T02:09:26.435Z,-1.325
2023-05-01T02:10:26.480Z,-1.31
2023-05-01T02:11:26.497Z,-1.363
2023-05-01T02:12:26.547Z,-1.378
2023-05-01T02:13:26.589Z,-1.378
2023-05-01T02:14:26.629Z,-1.378
2023-05-01T02:15:26.658Z,-1.401
2023-05-01T02:16:26.752Z,-1.416
2023-05-01T02:17:26.800Z,-1.401
2023-05-01T02:18:26.772Z,-1.401
2023-05-01T02:19:26.846Z,-1.416
2023-05-01T02:20:26.845Z,-1.431
2023-05-01T02:21:26.887Z,-1.431
2023-05-01T02:22:26.918Z,-1.454
2023-05-01T02:23:26.961Z,-1.491
2023-05-01T02:24:26.999Z,-1.476
2023-05-01T02:25:29.515Z,-1.453
2023-05-01T02:26:27.061Z,-1.491
2023-05-01T02:27:27.105Z,-1.476
2023-05-01T02:28:27.154Z,-1.476
2023-05-01T02:29:27.197Z,-1.461
2023-05-01T02:30:27.225Z,-1.432
2023-05-01T02:31:27.307Z,-1.44
2023-05-01T02:32:27.319Z,-1.425
2023-05-01T02:33:27.333Z,-1.428
2023-05-01T02:34:27.360Z,-1.398
2023-05-01T02:35:27.407Z,-1.416
2023-05-01T02:36:27.433Z,-1.416
2023-05-01T02:37:27.476Z,-1.469
2023-05-01T02:38:27.531Z,-1.484
2023-05-01T02:39:27.565Z,-1.469
2023-05-01T02:40:27.602Z,-1.434
2023-05-01T02:41:27.635Z,-1.449
2023-05-01T02:42:27.672Z,-1.484
2023-05-01T02:43:27.728Z,-1.466
2023-05-01T02:44:27.754Z,-1.449
2023-05-01T02:45:27.849Z,-1.434
2023-05-01T02:46:27.879Z,-1.451
2023-05-01T02:47:27.914Z,-1.451
2023-05-01T02:48:27.898Z,-1.451
2023-05-01T02:49:27.940Z,-1.472
2023-05-01T02:50:27.992Z,-1.501
2023-05-01T02:51:28.016Z,-1.531
2023-05-01T02:52:28.054Z,-1.543
2023-05-01T02:53:28.102Z,-1.55
2023-05-01T02:54:28.140Z,-1.55
2023-05-01T02:55:28.176Z,-1.535
2023-05-01T02:56:28.204Z,-1.535
2023-05-01T02:57:28.254Z,-1.539
2023-05-01T02:58:28.284Z,-1.524
2023-05-01T02:59:28.329Z,-1.491
2023-05-01T03:00:28.376Z,-1.536
2023-05-01T03:01:28.432Z,-1.551
2023-05-01T03:02:28.440Z,-1.551
2023-05-01T03:03:28.483Z,-1.551
2023-05-01T03:04:28.573Z,-1.536
2023-05-01T03:05:28.571Z,-1.554
2023-05-01T03:06:28.678Z,-1.525
2023-05-01T03:07:28.631Z,-1.475
2023-05-01T03:08:28.670Z,-1.49
2023-05-01T03:09:28.726Z,-1.486
2023-05-01T03:10:28.737Z,-1.486
2023-05-01T03:11:28.792Z,-1.501
2023-05-01T03:12:28.826Z,-1.516
2023-05-01T03:13:28.860Z,-1.501
2023-05-01T03:14:28.890Z,-1.486
2023-05-01T03:15:28.914Z,-1.457
2023-05-01T03:16:29.005Z,-1.445
2023-05-01T03:17:29.043Z,-1.463
2023-05-01T03:18:29.037Z,-1.398
2023-05-01T03:19:29.069Z,-1.398
2023-05-01T03:20:29.102Z,-1.398
2023-05-01T03:21:29.137Z,-1.398
2023-05-01T03:22:29.193Z,-1.398
2023-05-01T03:23:29.205Z,-1.383
2023-05-01T03:24:29.242Z,-1.369
2023-05-01T03:25:29.292Z,-1.354
2023-05-01T03:26:29.324Z,-1.369
2023-05-01T03:27:29.371Z,-1.383
2023-05-01T03:28:29.423Z,-1.333
2023-05-01T03:29:29.449Z,-1.348
2023-05-01T03:30:29.479Z,-1.348
2023-05-01T03:31:29.535Z,-1.377
2023-05-01T03:32:29.695Z,-1.407
2023-05-01T03:33:29.598Z,-1.436
2023-05-01T03:34:29.638Z,-1.451
2023-05-01T03:35:29.783Z,-1.481
2023-05-01T03:36:29.713Z,-1.51
2023-05-01T03:37:29.763Z,-1.555
2023-05-01T03:38:29.778Z,-1.555
2023-05-01T03:39:29.814Z,-1.558
2023-05-01T03:40:29.850Z,-1.56
2023-05-01T03:41:29.899Z,-1.56
2023-05-01T03:42:29.943Z,-1.545
2023-05-01T03:43:29.968Z,-1.56
2023-05-01T03:44:30.014Z,-1.531
2023-05-01T03:45:30.057Z,-1.516
2023-05-01T03:46:30.179Z,-1.516
2023-05-01T03:47:30.150Z,-1.516
2023-05-01T03:48:30.196Z,-1.516
2023-05-01T03:49:30.201Z,-1.501
2023-05-01T03:50:30.242Z,-1.472
2023-05-01T03:51:30.274Z,-1.434
2023-05-01T03:52:30.321Z,-1.449
2023-05-01T03:53:30.365Z,-1.434
2023-05-01T03:54:30.401Z,-1.434
2023-05-01T03:55:30.429Z,-1.419
2023-05-01T03:56:30.472Z,-1.419
2023-05-01T03:57:30.505Z,-1.434
2023-05-01T03:58:30.560Z,-1.426
2023-05-01T03:59:30.581Z,-1.426
2023-05-01T04:00:30.630Z,-1.455
2023-05-01T04:01:30.683Z,-1.455
2023-05-01T04:02:30.797Z,-1.455
2023-05-01T04:03:30.831Z,-1.47
2023-05-01T04:04:30.871Z,-1.463
2023-05-01T04:05:30.798Z,-1.448
2023-05-01T04:06:30.907Z,-1.433
2023-05-01T04:07:30.869Z,-1.448
2023-05-01T04:08:30.901Z,-1.411
2023-05-01T04:09:30.944Z,-1.425
2023-05-01T04:10:30.980Z,-1.44
2023-05-01T04:11:31.033Z,-1.455
2023-05-01T04:12:31.071Z,-1.432
2023-05-01T04:13:31.105Z,-1.432
2023-05-01T04:14:31.146Z,-1.402
2023-05-01T04:15:31.173Z,-1.388
2023-05-01T04:16:31.257Z,-1.38
2023-05-01T04:17:31.266Z,-1.394
2023-05-01T04:18:31.285Z,-1.401
2023-05-01T04:19:31.316Z,-1.401
2023-05-01T04:20:31.365Z,-1.369
2023-05-01T04:21:31.393Z,-1.336
2023-05-01T04:22:31.466Z,-1.314
2023-05-01T04:23:31.483Z,-1.314
2023-05-01T04:24:31.515Z,-1.306
2023-05-01T04:25:31.555Z,-1.338
2023-05-01T04:26:31.592Z,-1.321
2023-05-01T04:27:31.645Z,-1.284
2023-05-01T04:28:31.662Z,-1.252
2023-05-01T04:29:31.692Z,-1.202
2023-05-01T04:30:31.768Z,-1.149
2023-05-01T04:31:31.806Z,-1.097
2023-05-01T04:32:31.870Z,-1.062
2023-05-01T04:33:31.855Z,-1.006
2023-05-01T04:34:31.891Z,-0.991
2023-05-01T04:35:31.920Z,-0.9568
2023-05-01T04:36:31.962Z,-0.9249
2023-05-01T04:37:32.000Z,-0.8408
2023-05-01T04:38:32.056Z,-0.7852
2023-05-01T04:39:32.073Z,-0.7758
2023-05-01T04:40:32.109Z,-0.7539
2023-05-01T04:41:32.135Z,-0.7811
2023-05-01T04:42:32.189Z,-0.8335
2023-05-01T04:43:32.228Z,-0.8554
2023-05-01T04:44:32.251Z,-0.8594
2023-05-01T04:45:32.283Z,-0.9325
2023-05-01T04:46:32.345Z,-0.8867
2023-05-01T04:47:32.429Z,-0.8742
2023-05-01T04:48:32.402Z,-0.9132
2023-05-01T04:49:32.442Z,-0.9164
2023-05-01T04:50:32.460Z,-0.947
2023-05-01T04:51:32.500Z,-0.9379
2023-05-01T04:52:32.546Z,-0.8775
2023-05-01T04:53:32.615Z,-0.8855
2023-05-01T04:54:32.620Z,-0.9035
2023-05-01T04:55:32.664Z,-0.8962
2023-05-01T04:56:32.751Z,-0.8384
2023-05-01T04:57:32.737Z,-0.8678
2023-05-01T04:58:32.773Z,-0.8566
2023-05-01T04:59:32.807Z,-0.8651
2023-05-01T05:00:32.866Z,-0.9119
2023-05-01T05:01:32.934Z,-1.015
2023-05-01T05:02:33.024Z,-1.027
2023-05-01T05:03:33.053Z,-1
2023-05-01T05:04:33.001Z,-1.025
2023-05-01T05:05:33.047Z,-0.9564
2023-05-01T05:06:33.103Z,-0.9507
2023-05-01T05:07:33.114Z,-0.8453
2023-05-01T05:08:33.147Z,-0.758
2023-05-01T05:09:33.177Z,-0.7523
2023-05-01T05:10:33.239Z,-0.7174
2023-05-01T05:11:33.247Z,-0.7106
2023-05-01T05:12:33.286Z,-0.7007
2023-05-01T05:13:33.328Z,-1.007
2023-05-01T05:14:33.371Z,-0.8851
2023-05-01T05:15:33.419Z,-0.7799
2023-05-01T05:16:33.572Z,-0.7953
2023-05-01T05:17:33.521Z,-0.8352
2023-05-01T05:18:33.524Z,-0.9101
2023-05-01T05:19:33.551Z,-0.9519
2023-05-01T05:20:33.590Z,-1.135
2023-05-01T05:21:33.613Z,-0.9949
2023-05-01T05:22:33.651Z,-0.9029
2023-05-01T05:23:33.700Z,-0.9303
2023-05-01T05:24:33.711Z,-1.081
2023-05-01T05:25:33.740Z,-1.025
2023-05-01T05:26:33.810Z,-0.9398
2023-05-01T05:27:33.833Z,-0.9659
2023-05-01T05:28:33.861Z,-1.102
2023-05-01T05:29:33.896Z,-1.029
2023-05-01T05:30:33.942Z,-0.8403
2023-05-01T05:31:34.027Z,-1.091
2023-05-01T05:32:34.036Z,-1.086
2023-05-01T05:33:34.036Z,-0.9603
2023-05-01T05:34:34.070Z,-0.8343
2023-05-01T05:35:34.124Z,-0.8636
2023-05-01T05:36:34.182Z,-0.9576
2023-05-01T05:37:34.183Z,-0.9778
2023-05-01T05:38:34.217Z,-0.9206
2023-05-01T05:39:34.249Z,-0.9997
2023-05-01T05:40:34.287Z,-1.206
2023-05-01T05:41:34.340Z,-1.089
2023-05-01T05:42:34.348Z,-1.21
2023-05-01T05:43:34.407Z,-1.459
2023-05-01T05:44:34.429Z,-1.537
2023-05-01T05:45:34.500Z,-1.512
2023-05-01T05:46:34.562Z,-1.549
2023-05-01T05:47:34.544Z,-1.41
2023-05-01T05:48:34.576Z,-1.463
2023-05-01T05:49:34.618Z,-1.458
2023-05-01T05:50:34.647Z,-1.244
2023-05-01T05:51:34.690Z,-1.235
2023-05-01T05:52:34.727Z,-1.267
2023-05-01T05:53:34.775Z,-1.409
2023-05-01T05:54:34.817Z,-1.617
2023-05-01T05:55:34.855Z,-1.753
2023-05-01T05:56:34.897Z,-1.809
2023-05-01T05:57:34.940Z,-2.269
2023-05-01T05:58:34.967Z,-2.49
2023-05-01T05:59:34.995Z,-2.361
2023-05-01T06:00:35.032Z,-2.353
2023-05-01T06:01:35.059Z,-2.245
2023-05-01T06:02:35.236Z,-2.315
2023-05-01T06:03:35.279Z,-2.249
2023-05-01T06:04:35.201Z,-2.181
2023-05-01T06:05:35.290Z,-2.16
2023-05-01T06:06:35.303Z,-2.308
2023-05-01T06:07:35.339Z,-2.578
2023-05-01T06:08:35.347Z,-2.533
2023-05-01T06:09:35.369Z,-2.497
2023-05-01T06:10:35.410Z,-2.664
2023-05-01T06:11:35.441Z,-2.58
2023-05-01T06:12:37.555Z,-2.746
2023-05-01T06:13:35.526Z,-2.934
2023-05-01T06:14:35.539Z,-2.733
2023-05-01T06:15:35.647Z,-3.558
2023-05-01T06:16:35.753Z,-3.705
2023-05-01T06:17:35.699Z,-3.723
2023-05-01T06:18:35.689Z,-4.096
2023-05-01T06:19:35.725Z,-4.313
2023-05-01T06:20:35.748Z,-4.535
2023-05-01T06:21:35.795Z,-4.315
2023-05-01T06:22:35.835Z,-4.215
2023-05-01T06:23:35.884Z,-4.307
2023-05-01T06:24:35.898Z,-4.495
2023-05-01T06:25:35.937Z,-4.748
2023-05-01T06:26:35.979Z,-4.538
2023-05-01T06:27:36.015Z,-4.262
2023-05-01T06:28:36.070Z,-4.589
2023-05-01T06:29:36.093Z,-4.36
2023-05-01T06:30:36.126Z,-4.648
2023-05-01T06:31:36.263Z,-5.026
2023-05-01T06:32:36.223Z,-4.969
2023-05-01T06:33:36.220Z,-4.992
2023-05-01T06:34:36.257Z,-4.787
2023-05-01T06:35:36.304Z,-5.4
2023-05-01T06:36:36.355Z,-5.072
2023-05-01T06:37:36.381Z,-5.296
2023-05-01T06:38:36.422Z,-5.337
2023-05-01T06:39:36.456Z,-5.091
2023-05-01T06:40:36.486Z,-5.649
2023-05-01T06:41:36.551Z,-5.8
2023-05-01T06:42:36.561Z,-5.712
2023-05-01T06:43:36.605Z,-5.363
